Time;durP1;ratioP1;P1;durP2;ratioP2;P2;SDS_P1;SDS_P2;PMS_P1;PMS_P2;Temp;Humidity;BMP_temperature;BMP_pressure;BME280_temperature;BME280_humidity;BME280_pressure;Samples;Min_cycle;Max_cycle;Signal;HPM_P1;HPM_P2
2022/01/31 00:01:04;;;;;;;12.10;5.97;;;;;;;4.16;76.39;101097.69;5114276;28;20196;-68
2022/01/31 00:03:33;;;;;;;6.87;6.43;;;;;;;4.13;76.40;101090.78;5114484;28;20185;-68
2022/01/31 00:06:03;;;;;;;10.30;5.40;;;;;;;4.19;76.27;101076.91;5114169;28;20672;-68
2022/01/31 00:08:29;;;;;;;10.60;5.37;;;;;;;4.24;76.43;101067.38;5114383;28;20220;-68
2022/01/31 00:10:56;;;;;;;6.67;5.33;;;;;;;4.26;76.21;101070.81;5114103;28;20721;-67
2022/01/31 00:13:32;;;;;;;7.50;5.90;;;;;;;4.21;76.24;101083.78;5113968;28;20677;-67
2022/01/31 00:15:59;;;;;;;5.60;5.27;;;;;;;4.26;76.41;101097.56;5114373;28;20180;-68
2022/01/31 00:18:25;;;;;;;11.20;5.70;;;;;;;4.27;76.37;101095.84;5114217;28;20208;-68
2022/01/31 00:20:52;;;;;;;9.73;5.43;;;;;;;4.33;76.45;101082.81;5113832;28;20204;-68
2022/01/31 00:23:19;;;;;;;7.30;5.73;;;;;;;4.31;76.82;101058.66;5114201;28;20197;-68
2022/01/31 00:25:46;;;;;;;12.63;6.13;;;;;;;4.34;76.71;101050.84;5114149;28;20723;-68
2022/01/31 00:28:14;;;;;;;18.53;6.60;;;;;;;4.34;76.88;101040.47;5113834;28;20205;-68
2022/01/31 00:30:40;;;;;;;12.97;5.93;;;;;;;4.40;76.51;101017.06;5095610;28;20564;-68
2022/01/31 00:33:07;;;;;;;9.07;6.37;;;;;;;4.30;76.59;100999.94;5114030;28;20238;-68
2022/01/31 00:35:35;;;;;;;8.90;5.40;;;;;;;4.25;76.27;100997.38;5096665;28;20210;-67
2022/01/31 00:38:02;;;;;;;6.53;5.93;;;;;;;4.32;76.53;100992.97;5113709;28;20211;-68
2022/01/31 00:40:29;;;;;;;14.03;5.37;;;;;;;4.31;76.72;100997.31;5095546;28;20560;-68
2022/01/31 00:42:55;;;;;;;7.93;4.83;;;;;;;4.29;76.42;100993.03;5114001;28;20630;-68
2022/01/31 00:45:30;;;;;;;5.13;4.63;;;;;;;4.28;76.97;100997.31;5113975;28;20705;-68
2022/01/31 00:48:05;;;;;;;6.70;4.23;;;;;;;4.31;76.86;100976.56;5095696;28;20212;-68
2022/01/31 00:50:39;;;;;;;9.43;4.17;;;;;;;4.30;77.23;100959.31;5097485;28;20185;-68
2022/01/31 00:53:07;;;;;;;8.63;5.37;;;;;;;4.26;77.05;100943.81;5099658;28;20559;-68
2022/01/31 00:55:33;;;;;;;11.40;5.30;;;;;;;4.32;76.84;100939.41;5117776;28;20212;-68
2022/01/31 00:58:00;;;;;;;4.80;4.40;;;;;;;4.28;76.68;100921.31;5118077;28;20677;-68
2022/01/31 01:00:26;;;;;;;9.83;4.23;;;;;;;4.32;76.67;100900.53;5118034;28;20588;-68
2022/01/31 01:02:53;;;;;;;4.50;4.20;;;;;;;4.31;76.75;100883.28;5118249;28;20591;-67
2022/01/31 01:05:22;;;;;;;10.63;4.83;;;;;;;4.36;76.89;100896.19;5099389;28;20594;-67
2022/01/31 01:07:50;;;;;;;5.13;4.63;;;;;;;4.29;77.07;100879.84;5099295;28;20258;-68
2022/01/31 01:10:18;;;;;;;17.70;5.70;;;;;;;4.35;76.92;100868.53;5099364;28;20193;-68
2022/01/31 01:12:45;;;;;;;7.60;4.90;;;;;;;4.31;77.43;100864.28;5116253;28;20193;-68
2022/01/31 01:15:13;;;;;;;5.63;5.03;;;;;;;4.22;77.40;100830.72;5117412;28;20197;-68
2022/01/31 01:17:41;;;;;;;10.93;5.23;;;;;;;4.24;77.44;100832.41;5117364;28;20246;-68
2022/01/31 01:20:08;;;;;;;4.83;4.33;;;;;;;4.19;77.67;100820.38;5098985;28;20210;-68
2022/01/31 01:22:35;;;;;;;8.57;4.07;;;;;;;4.25;77.97;100815.97;5099068;28;20186;-68
2022/01/31 01:25:04;;;;;;;7.40;4.50;;;;;;;4.26;77.68;100809.91;5098980;28;20185;-68
2022/01/31 01:27:32;;;;;;;12.33;4.23;;;;;;;4.25;78.05;100779.69;5098928;28;20218;-68
2022/01/31 01:29:58;;;;;;;7.77;4.60;;;;;;;4.24;77.89;100774.53;5117176;28;20746;-68
2022/01/31 01:32:28;;;;;;;10.03;5.67;;;;;;;4.23;77.82;100760.72;5098959;28;20200;-68
2022/01/31 01:34:59;;;;;;;8.63;5.20;;;;;;;4.22;78.24;100746.06;5117090;28;20195;-68
2022/01/31 01:37:26;;;;;;;8.23;4.70;;;;;;;4.16;78.42;100724.56;5117260;28;20179;-68
2022/01/31 01:39:52;;;;;;;9.00;5.80;;;;;;;4.20;78.55;100713.25;5117089;28;20257;-68
2022/01/31 01:42:19;;;;;;;9.40;4.90;;;;;;;4.28;78.64;100696.69;5098733;28;20189;-68
2022/01/31 01:44:51;;;;;;;8.90;5.10;;;;;;;4.14;78.79;100699.53;5117488;28;20193;-68
2022/01/31 01:47:22;;;;;;;7.13;5.07;;;;;;;4.22;78.77;100683.00;5099142;28;20236;-68
2022/01/31 01:49:51;;;;;;;8.70;4.90;;;;;;;4.20;78.98;100662.28;5099151;28;20280;-68
2022/01/31 01:52:20;;;;;;;12.73;5.80;;;;;;;4.24;78.50;100640.63;5099323;28;20202;-68
2022/01/31 01:54:48;;;;;;;5.60;5.17;;;;;;;4.15;78.94;100638.19;5116929;28;20665;-68
2022/01/31 01:57:17;;;;;;;5.87;4.43;;;;;;;4.27;78.89;100621.56;5098543;28;20190;-68
2022/01/31 01:59:47;;;;;;;10.90;4.40;;;;;;;4.31;78.87;100602.50;5083224;28;20210;-68
2022/01/31 02:02:22;;;;;;;7.07;5.37;;;;;;;4.25;79.13;100600.03;5097780;28;20193;-68
2022/01/31 02:04:50;;;;;;;10.03;4.07;;;;;;;4.24;79.51;100591.41;5098471;28;20196;-68
2022/01/31 02:07:33;;;;;;;6.13;5.43;;;;;;;4.29;80.80;100576.63;5098752;28;20307;-68
2022/01/31 02:10:04;;;;;;;10.20;5.43;;;;;;;4.18;82.16;100564.72;5098168;28;20193;-68
2022/01/31 02:12:46;;;;;;;4.87;4.33;;;;;;;4.12;83.69;100561.34;5098360;28;20191;-68
2022/01/31 02:15:25;;;;;;;6.23;5.53;;;;;;;4.05;84.80;100543.34;5098320;28;20296;-68
2022/01/31 02:18:31;;;;;;;8.07;5.23;;;;;;;3.89;86.08;100547.94;5073530;28;20703;-68
2022/01/31 02:21:01;;;;;;;6.33;5.27;;;;;;;3.83;87.10;100541.13;5056489;28;20245;-68
2022/01/31 02:23:30;;;;;;;5.93;5.10;;;;;;;3.74;88.32;100540.44;5095041;28;20579;-68
2022/01/31 02:26:16;;;;;;;6.87;5.07;;;;;;;3.73;89.14;100520.59;5098136;28;20190;-68
2022/01/31 02:28:56;;;;;;;9.67;5.40;;;;;;;3.71;89.81;100520.59;5097742;28;20215;-68
2022/01/31 02:31:23;;;;;;;5.00;4.60;;;;;;;3.72;90.61;100512.00;5097715;28;20692;-68
2022/01/31 02:33:49;;;;;;;4.93;4.53;;;;;;;3.77;91.42;100509.31;5097609;28;20615;-68
2022/01/31 02:36:16;;;;;;;16.77;6.00;;;;;;;3.72;91.85;100495.59;5115911;28;20182;-68
2022/01/31 02:38:42;;;;;;;11.90;5.80;;;;;;;3.69;92.46;100495.63;5097582;28;20579;-68
2022/01/31 02:41:10;;;;;;;6.37;5.20;;;;;;;3.71;92.85;100488.69;5097849;28;20283;-68
2022/01/31 02:43:36;;;;;;;5.83;5.03;;;;;;;3.69;93.46;100474.91;5097549;28;20196;-68
2022/01/31 02:46:08;;;;;;;13.07;5.70;;;;;;;3.54;93.61;100469.13;5097711;28;20580;-68
2022/01/31 02:48:36;;;;;;;8.23;5.87;;;;;;;3.46;94.06;100459.78;5097272;28;20260;-68
2022/01/31 02:51:08;;;;;;;12.87;5.90;;;;;;;3.46;94.49;100452.88;5097332;28;20663;-68
2022/01/31 02:53:41;;;;;;;8.53;5.53;;;;;;;3.37;94.85;100447.84;5097330;28;20187;-69
2022/01/31 02:56:08;;;;;;;7.97;5.47;;;;;;;3.39;95.66;100448.69;5097241;28;20202;-69
2022/01/31 02:58:34;;;;;;;8.83;5.10;;;;;;;3.37;95.45;100439.25;5097258;28;20236;-69
2022/01/31 03:01:01;;;;;;;5.93;5.37;;;;;;;3.30;95.81;100429.00;5097199;28;20185;-69
2022/01/31 03:03:32;;;;;;;5.37;4.73;;;;;;;3.25;96.15;100427.34;5097148;28;20189;-69
2022/01/31 03:05:58;;;;;;;6.50;5.87;;;;;;;3.20;96.42;100411.88;5097071;28;20555;-69
2022/01/31 03:08:25;;;;;;;7.33;5.83;;;;;;;3.21;96.54;100410.16;5097788;28;20308;-70
2022/01/31 03:10:54;;;;;;;6.70;6.03;;;;;;;3.22;96.21;100391.19;5096961;28;20208;-70
2022/01/31 03:13:50;;;;;;;14.90;6.53;;;;;;;3.21;96.70;100399.81;5095902;28;20200;-70
2022/01/31 03:16:18;;;;;;;10.53;6.67;;;;;;;3.21;96.91;100379.97;5097501;28;20643;-71
2022/01/31 03:19:15;;;;;;;6.53;6.07;;;;;;;3.14;96.46;100387.84;5097173;28;20571;-72
2022/01/31 03:21:46;;;;;;;10.87;6.23;;;;;;;3.06;96.35;100362.13;5113784;28;20192;-72
2022/01/31 03:24:12;;;;;;;7.77;7.17;;;;;;;3.07;97.30;100361.22;5113717;28;20704;-71
2022/01/31 03:26:40;;;;;;;11.60;6.83;;;;;;;3.14;97.58;100361.97;5096691;28;20659;-72
2022/01/31 03:29:06;;;;;;;10.27;7.87;;;;;;;3.04;97.80;100353.53;5097167;28;20262;-72
2022/01/31 03:31:33;;;;;;;6.43;5.93;;;;;;;3.07;97.65;100337.09;5114854;28;20184;-72
2022/01/31 03:34:00;;;;;;;11.83;5.97;;;;;;;3.17;97.96;100338.66;5096679;28;20224;-71
2022/01/31 03:36:26;;;;;;;6.70;6.13;;;;;;;3.12;97.67;100324.94;5097406;28;20589;-72
2022/01/31 03:38:53;;;;;;;6.53;6.03;;;;;;;3.04;98.12;100327.66;5113344;28;20284;-72
2022/01/31 03:41:21;;;;;;;7.43;5.13;;;;;;;2.98;98.04;100318.28;5097297;28;20186;-72
2022/01/31 03:43:49;;;;;;;6.60;6.00;;;;;;;3.01;98.43;100307.91;5113369;28;20194;-72
2022/01/31 03:46:16;;;;;;;12.07;6.40;;;;;;;3.09;98.50;100304.31;5114811;28;20642;-72
2022/01/31 03:48:44;;;;;;;7.00;6.43;;;;;;;3.13;98.54;100290.44;5079984;28;20266;-72
2022/01/31 03:51:32;;;;;;;6.13;5.70;;;;;;;3.15;98.64;100283.53;5082745;28;20193;-71
2022/01/31 03:53:59;;;;;;;7.10;6.67;;;;;;;3.28;98.83;100272.91;5113149;28;20185;-71
2022/01/31 03:56:26;;;;;;;8.90;5.93;;;;;;;3.35;99.02;100259.84;5096073;28;20663;-71
2022/01/31 03:59:04;;;;;;;6.20;5.93;;;;;;;3.40;98.71;100258.03;5096332;28;20214;-72
2022/01/31 04:01:30;;;;;;;7.23;6.30;;;;;;;3.41;98.80;100239.03;5079386;28;20196;-72
2022/01/31 04:03:57;;;;;;;6.03;5.73;;;;;;;3.48;99.12;100238.88;5114499;28;20186;-72
2022/01/31 04:06:24;;;;;;;11.67;6.27;;;;;;;3.46;99.16;100221.69;5114760;28;20282;-72
2022/01/31 04:08:51;;;;;;;7.40;6.30;;;;;;;3.55;99.35;100221.50;5114473;28;20241;-72
2022/01/31 04:11:18;;;;;;;5.83;5.33;;;;;;;3.53;99.31;100218.94;5096362;28;20214;-72
2022/01/31 04:13:44;;;;;;;6.43;6.03;;;;;;;3.49;99.36;100211.28;5114663;28;20581;-72
2022/01/31 04:16:11;;;;;;;6.13;5.83;;;;;;;3.57;100.00;100224.91;5114266;28;20238;-72
2022/01/31 04:18:37;;;;;;;7.17;6.70;;;;;;;3.64;99.95;100208.34;5114234;28;20270;-72
2022/01/31 04:21:04;;;;;;;6.47;5.97;;;;;;;3.72;99.47;100214.25;5113936;28;20198;-72
2022/01/31 04:23:30;;;;;;;8.30;6.97;;;;;;;3.75;99.30;100213.31;5114253;28;20247;-72
2022/01/31 04:26:07;;;;;;;8.67;5.83;;;;;;;3.72;98.91;100209.06;5113573;28;20281;-72
2022/01/31 04:28:42;;;;;;;7.80;7.00;;;;;;;3.74;99.23;100212.47;5114510;28;20309;-72
2022/01/31 04:31:23;;;;;;;8.47;7.03;;;;;;;3.78;99.24;100208.91;5114155;28;20200;-71
2022/01/31 04:33:51;;;;;;;7.23;6.63;;;;;;;3.80;99.59;100204.59;5114129;28;20173;-72
2022/01/31 04:36:18;;;;;;;7.57;7.07;;;;;;;3.87;99.46;100202.72;5114049;28;20611;-71
2022/01/31 04:38:48;;;;;;;10.30;8.13;;;;;;;3.86;99.61;100207.03;5113965;28;20239;-71
2022/01/31 04:41:15;;;;;;;9.07;8.00;;;;;;;3.85;99.99;100197.53;5113995;28;20185;-71
2022/01/31 04:43:43;;;;;;;9.13;8.20;;;;;;;3.94;99.98;100208.59;5096260;28;20665;-71
2022/01/31 04:46:11;;;;;;;7.73;6.97;;;;;;;3.94;99.86;100196.50;5113929;28;20520;-71
2022/01/31 04:48:37;;;;;;;7.43;6.77;;;;;;;4.00;99.74;100180.84;5113892;28;20266;-72
2022/01/31 04:51:03;;;;;;;7.30;6.73;;;;;;;4.12;99.55;100183.13;5114233;28;20225;-71
2022/01/31 04:53:30;;;;;;;8.37;7.40;;;;;;;4.16;99.73;100178.72;5113938;28;20663;-72
2022/01/31 04:55:56;;;;;;;10.83;7.73;;;;;;;4.25;99.62;100173.31;5113876;28;20234;-72
2022/01/31 04:58:23;;;;;;;7.70;7.00;;;;;;;4.25;99.80;100172.47;5095900;28;20336;-72
2022/01/31 05:00:50;;;;;;;14.77;6.97;;;;;;;4.35;99.25;100174.78;5114136;28;20225;-72
2022/01/31 05:03:19;;;;;;;16.80;6.93;;;;;;;4.36;99.51;100167.88;5113794;28;20195;-72
2022/01/31 05:05:46;;;;;;;17.27;6.20;;;;;;;4.41;99.42;100166.00;5113761;28;20688;-72
2022/01/31 05:08:13;;;;;;;10.03;6.37;;;;;;;4.41;99.29;100160.81;5113717;28;20308;-72
2022/01/31 05:10:46;;;;;;;9.23;7.03;;;;;;;4.44;99.21;100163.34;5095660;28;20188;-72
2022/01/31 05:13:13;;;;;;;9.07;7.43;;;;;;;4.46;99.15;100151.19;5114130;28;20210;-72
2022/01/31 05:15:41;;;;;;;11.17;6.30;;;;;;;4.48;98.84;100159.78;5113654;28;20715;-72
2022/01/31 05:18:07;;;;;;;16.67;7.17;;;;;;;4.51;98.99;100151.09;5113796;28;20242;-72
2022/01/31 05:20:35;;;;;;;12.10;6.77;;;;;;;4.50;99.04;100163.22;5113350;28;20291;-71
2022/01/31 05:23:01;;;;;;;8.10;7.43;;;;;;;4.56;99.00;100147.47;5113895;28;20256;-71
2022/01/31 05:25:28;;;;;;;25.37;7.80;;;;;;;4.54;98.87;100151.84;5113889;28;20190;-71
2022/01/31 05:27:54;;;;;;;9.00;7.20;;;;;;;4.57;98.88;100149.19;5113517;28;20242;-72
2022/01/31 05:30:22;;;;;;;9.87;7.77;;;;;;;4.58;98.64;100132.75;5113557;28;20192;-71
2022/01/31 05:32:49;;;;;;;15.77;6.80;;;;;;;4.59;98.53;100141.38;5113558;28;20290;-71
2022/01/31 05:35:16;;;;;;;8.90;6.57;;;;;;;4.63;98.05;100143.81;5095340;28;20250;-72
2022/01/31 05:37:42;;;;;;;6.60;5.57;;;;;;;4.69;98.07;100135.03;5117402;28;20310;-72
2022/01/31 05:40:09;;;;;;;11.13;4.70;;;;;;;4.69;97.80;100133.28;5117617;28;20257;-71
2022/01/31 05:42:36;;;;;;;7.33;5.10;;;;;;;4.70;97.39;100127.22;5117257;28;20197;-72
2022/01/31 05:45:03;;;;;;;6.40;5.80;;;;;;;4.72;97.25;100124.59;5099425;28;20234;-71
2022/01/31 05:47:29;;;;;;;6.27;5.67;;;;;;;4.70;96.70;100119.44;5099321;28;20305;-72
2022/01/31 05:49:56;;;;;;;11.20;4.67;;;;;;;4.77;96.44;100119.28;5117075;28;20278;-71
2022/01/31 05:52:22;;;;;;;6.13;4.93;;;;;;;4.74;96.23;100114.19;5116982;28;20199;-71
2022/01/31 05:54:54;;;;;;;6.17;4.23;;;;;;;4.79;96.24;100107.13;5116939;28;20201;-72
2022/01/31 05:57:21;;;;;;;9.63;4.50;;;;;;;4.76;95.86;100112.41;5116855;28;20235;-72
2022/01/31 05:59:47;;;;;;;5.40;4.07;;;;;;;4.74;95.44;100106.41;5099150;28;20283;-72
2022/01/31 06:02:14;;;;;;;3.93;2.93;;;;;;;4.78;94.20;100115.78;5117130;28;20542;-72
2022/01/31 06:04:40;;;;;;;6.77;3.33;;;;;;;4.82;93.25;100101.84;5098158;28;20173;-72
2022/01/31 06:07:06;;;;;;;8.20;4.17;;;;;;;4.86;93.92;100098.31;5116649;28;20550;-72
2022/01/31 06:09:33;;;;;;;11.80;4.63;;;;;;;4.84;93.70;100094.88;5098581;28;20631;-71
2022/01/31 06:12:02;;;;;;;7.27;3.87;;;;;;;4.84;92.88;100098.31;5098032;28;20237;-72
2022/01/31 06:14:30;;;;;;;8.03;3.53;;;;;;;4.87;93.06;100100.00;5116342;28;20192;-72
2022/01/31 06:16:56;;;;;;;4.67;4.47;;;;;;;4.88;93.33;100099.09;5081110;28;20268;-71
2022/01/31 06:19:23;;;;;;;4.43;3.90;;;;;;;4.88;93.78;100088.72;5116103;28;20211;-71
2022/01/31 06:21:50;;;;;;;3.53;3.43;;;;;;;4.87;93.81;100082.69;5098064;28;20196;-71
2022/01/31 06:24:17;;;;;;;6.07;3.27;;;;;;;4.92;93.52;100082.53;5116017;28;20738;-71
2022/01/31 06:26:44;;;;;;;3.57;3.37;;;;;;;4.94;93.97;100093.75;5098942;28;20192;-71
2022/01/31 06:29:20;;;;;;;6.43;3.10;;;;;;;4.92;93.73;100088.56;5082289;28;20216;-72
2022/01/31 06:31:47;;;;;;;5.60;3.20;;;;;;;4.94;93.89;100096.34;5081038;28;20185;-71
2022/01/31 06:34:14;;;;;;;3.57;3.10;;;;;;;4.90;93.88;100082.59;5097703;28;20291;-71
2022/01/31 06:36:40;;;;;;;8.53;2.70;;;;;;;4.82;93.72;100076.78;5115820;28;20253;-72
2022/01/31 06:39:07;;;;;;;6.63;3.30;;;;;;;4.79;94.28;100074.28;5115770;28;20208;-72
2022/01/31 06:41:34;;;;;;;7.93;2.57;;;;;;;4.81;94.75;100076.81;5116517;28;20191;-72
2022/01/31 06:44:00;;;;;;;3.47;3.17;;;;;;;4.78;94.89;100076.88;5098190;28;20199;-71
2022/01/31 06:46:27;;;;;;;5.13;3.13;;;;;;;4.77;95.19;100080.38;5116236;28;20192;-71
2022/01/31 06:48:54;;;;;;;11.03;3.70;;;;;;;4.74;95.51;100083.06;5114992;28;20216;-72
2022/01/31 06:51:21;;;;;;;5.47;3.60;;;;;;;4.74;95.73;100075.28;5080449;28;20284;-72
2022/01/31 06:53:55;;;;;;;12.23;3.50;;;;;;;4.73;95.47;100074.44;5097231;28;20193;-73
2022/01/31 06:56:29;;;;;;;11.63;3.83;;;;;;;4.70;95.80;100082.28;5115976;28;20254;-74
2022/01/31 06:58:56;;;;;;;7.13;3.43;;;;;;;4.62;95.92;100085.09;5115735;28;20209;-74
2022/01/31 07:01:25;;;;;;;3.40;3.20;;;;;;;4.44;96.15;100106.34;5115488;28;20234;-74
2022/01/31 07:03:54;;;;;;;8.87;3.43;;;;;;;4.28;96.80;100099.81;5115429;28;20263;-74
2022/01/31 07:06:21;;;;;;;6.17;1.93;;;;;;;4.02;95.59;100093.56;5115325;28;20198;-74
2022/01/31 07:08:48;;;;;;;2.17;2.07;;;;;;;3.88;95.16;100097.38;5115231;28;20687;-74
2022/01/31 07:11:20;;;;;;;3.03;2.60;;;;;;;3.81;95.50;100091.50;5097322;28;20582;-74
2022/01/31 07:13:49;;;;;;;2.93;2.37;;;;;;;3.75;96.40;100100.25;5115781;28;20243;-74
2022/01/31 07:16:15;;;;;;;2.40;2.30;;;;;;;3.72;96.42;100082.22;5115038;28;20262;-74
2022/01/31 07:18:43;;;;;;;2.57;2.47;;;;;;;3.68;96.31;100095.25;5096791;28;20217;-73
2022/01/31 07:21:13;;;;;;;2.63;2.07;;;;;;;3.65;96.81;100098.78;5114969;28;20654;-73
2022/01/31 07:26:18;;;;;;;1.83;1.73;;;;;;;3.56;96.86;100088.63;5115228;28;20231;-74
2022/01/31 07:28:44;;;;;;;2.47;1.50;;;;;;;3.57;97.64;100091.19;5114806;28;20215;-73
2022/01/31 07:31:11;;;;;;;2.63;2.03;;;;;;;3.48;97.78;100085.34;5114850;28;20232;-74
2022/01/31 07:33:41;;;;;;;1.37;1.37;;;;;;;3.48;98.11;100086.22;5096602;28;20191;-73
2022/01/31 07:36:07;;;;;;;6.53;1.80;;;;;;;3.48;97.70;100085.34;5096733;28;20305;-73
2022/01/31 07:38:36;;;;;;;4.23;2.03;;;;;;;3.45;97.64;100078.53;5097008;28;20698;-73
2022/01/31 07:41:03;;;;;;;2.73;2.50;;;;;;;3.41;98.19;100092.41;5096580;28;20675;-73
2022/01/31 07:43:31;;;;;;;2.77;2.67;;;;;;;3.43;98.44;100088.06;5114475;28;20181;-73
2022/01/31 07:45:57;;;;;;;2.93;2.93;;;;;;;3.44;98.93;100084.59;5114717;28;20207;-73
2022/01/31 07:48:28;;;;;;;6.53;2.43;;;;;;;3.45;99.32;100081.09;5114452;28;20262;-73
2022/01/31 07:50:55;;;;;;;3.43;3.33;;;;;;;3.45;99.32;100075.94;5114462;28;20200;-73
2022/01/31 07:53:21;;;;;;;4.13;3.33;;;;;;;3.46;99.44;100072.47;5114729;28;20189;-74
2022/01/31 07:55:48;;;;;;;8.17;3.57;;;;;;;3.48;99.56;100068.09;5114607;28;20232;-74
2022/01/31 07:58:14;;;;;;;5.17;3.70;;;;;;;3.45;99.85;100072.50;5079207;28;20209;-74
2022/01/31 08:00:44;;;;;;;3.40;3.20;;;;;;;3.50;100.00;100063.75;5113685;28;20276;-74
2022/01/31 08:03:11;;;;;;;6.23;3.43;;;;;;;3.50;100.00;100068.03;5114238;28;20315;-74
2022/01/31 08:05:37;;;;;;;6.90;4.10;;;;;;;3.53;99.84;100055.91;5114477;28;20192;-73
2022/01/31 08:08:04;;;;;;;4.33;3.97;;;;;;;3.58;99.79;100058.41;5095873;28;20595;-74
2022/01/31 08:10:34;;;;;;;4.57;3.27;;;;;;;3.58;99.66;100051.47;5096638;28;20298;-73
2022/01/31 08:13:01;;;;;;;3.37;3.27;;;;;;;3.61;99.60;100057.47;5096394;28;20170;-73
2022/01/31 08:15:29;;;;;;;4.07;3.77;;;;;;;3.65;99.43;100044.41;5113928;28;20190;-73
2022/01/31 08:17:56;;;;;;;4.77;3.70;;;;;;;3.73;99.30;100044.25;5095649;28;20217;-73
2022/01/31 08:20:22;;;;;;;2.80;2.80;;;;;;;3.70;99.00;100044.28;5114167;28;20605;-73
2022/01/31 08:22:49;;;;;;;7.40;3.33;;;;;;;3.74;99.04;100033.00;5095784;28;20206;-74
2022/01/31 08:25:15;;;;;;;7.13;3.40;;;;;;;3.72;99.53;100022.69;5096377;28;20230;-73
2022/01/31 08:27:48;;;;;;;3.43;3.30;;;;;;;3.75;99.50;100034.69;5113860;28;20207;-74
2022/01/31 08:30:20;;;;;;;5.17;4.00;;;;;;;3.77;99.17;100023.41;5095806;28;20182;-74
2022/01/31 08:32:58;;;;;;;15.03;3.27;;;;;;;3.82;99.42;100018.13;5114126;28;20174;-73
2022/01/31 08:38:10;;;;;;;10.60;3.20;;;;;;;3.88;99.12;100015.38;5113674;28;20202;-73
2022/01/31 08:40:38;;;;;;;3.73;3.53;;;;;;;3.87;99.35;100005.91;5113880;28;20167;-74
2022/01/31 08:43:05;;;;;;;3.00;2.80;;;;;;;3.85;98.93;100018.88;5113645;28;20194;-73
2022/01/31 08:45:34;;;;;;;2.77;2.63;;;;;;;3.88;98.72;100012.78;5113979;28;20179;-74
2022/01/31 08:48:02;;;;;;;7.33;3.13;;;;;;;3.90;99.05;100004.97;5113915;28;20213;-73
2022/01/31 08:50:29;;;;;;;6.00;2.77;;;;;;;3.91;98.97;100030.81;5113607;28;20186;-73
2022/01/31 08:52:56;;;;;;;7.30;3.77;;;;;;;3.88;98.79;100007.59;5113904;28;20189;-74
2022/01/31 08:55:24;;;;;;;4.70;2.83;;;;;;;3.85;99.18;100010.25;5095805;28;20178;-74
2022/01/31 08:57:54;;;;;;;9.63;3.47;;;;;;;3.86;99.21;100015.41;5095266;28;20217;-74
2022/01/31 09:00:21;;;;;;;5.70;3.10;;;;;;;3.89;99.23;100009.31;5095745;28;20194;-74
2022/01/31 09:03:07;;;;;;;4.27;3.13;;;;;;;3.89;99.16;100003.28;5113824;28;20176;-74
2022/01/31 09:05:33;;;;;;;3.50;3.23;;;;;;;3.88;99.10;100001.56;5113815;28;20216;-74
2022/01/31 09:08:00;;;;;;;3.93;3.60;;;;;;;3.91;99.64;100006.66;5113758;28;20210;-74
2022/01/31 09:10:27;;;;;;;9.73;3.10;;;;;;;3.87;99.46;100005.91;5095462;28;20640;-74
2022/01/31 09:12:53;;;;;;;2.70;2.53;;;;;;;3.84;99.58;99995.63;5117828;28;20192;-74
2022/01/31 09:15:19;;;;;;;4.07;2.60;;;;;;;3.89;99.68;99998.09;5117532;28;20184;-74
2022/01/31 09:17:46;;;;;;;3.60;2.80;;;;;;;3.91;99.54;99997.16;5117344;28;20213;-74
2022/01/31 09:20:13;;;;;;;4.37;3.20;;;;;;;3.90;99.53;100000.63;5117529;28;20198;-74
2022/01/31 09:22:41;;;;;;;6.27;3.47;;;;;;;3.92;99.23;99998.84;5117351;28;20196;-74
2022/01/31 09:25:08;;;;;;;6.80;2.50;;;;;;;3.91;99.34;99981.63;5117356;28;20190;-74
2022/01/31 09:27:35;;;;;;;4.67;2.53;;;;;;;3.93;99.60;99985.03;5117555;28;20236;-74
2022/01/31 09:30:04;;;;;;;2.50;1.90;;;;;;;3.92;99.26;99970.38;5098924;28;20211;-74
2022/01/31 09:32:31;;;;;;;1.90;1.90;;;;;;;3.96;99.42;99984.09;5117660;28;20658;-74
2022/01/31 09:34:58;;;;;;;5.70;2.53;;;;;;;3.96;99.13;99979.78;5098942;28;20185;-74
2022/01/31 09:37:24;;;;;;;2.93;1.80;;;;;;;3.97;99.61;99989.22;5098870;28;20205;-74
2022/01/31 09:39:51;;;;;;;3.57;2.13;;;;;;;3.95;99.72;99972.03;5098716;28;20188;-74
2022/01/31 09:42:29;;;;;;;3.23;2.67;;;;;;;3.97;99.42;99989.22;5116962;28;20225;-74
2022/01/31 09:45:14;;;;;;;3.17;2.20;;;;;;;3.97;99.67;99986.66;5116937;28;20191;-74
2022/01/31 09:48:32;;;;;;;2.47;2.37;;;;;;;4.03;99.47;99989.06;5116758;28;20213;-74
2022/01/31 09:50:36;;;;;;;2.57;2.07;;;;;;;4.05;99.54;99976.94;5116750;28;20238;-74
2022/01/31 09:53:03;;;;;;;3.70;2.90;;;;;;;4.07;99.71;99982.06;5081906;28;20708;-75
2022/01/31 09:55:30;;;;;;;7.47;2.70;;;;;;;4.09;99.93;99982.88;5116946;28;20211;-74
2022/01/31 09:57:57;;;;;;;6.10;3.03;;;;;;;4.13;99.15;99989.66;5116658;28;20696;-74
2022/01/31 10:00:33;;;;;;;4.10;3.17;;;;;;;4.18;99.20;100005.09;5116956;28;20625;-74
2022/01/31 10:03:05;;;;;;;10.07;3.10;;;;;;;4.19;99.32;100006.81;5116638;28;20556;-75
2022/01/31 10:05:32;;;;;;;4.10;2.80;;;;;;;4.22;99.44;100006.72;5098345;28;20186;-75
2022/01/31 10:08:09;;;;;;;7.13;3.17;;;;;;;4.20;99.96;100005.91;5116433;28;20610;-75
2022/01/31 10:10:41;;;;;;;9.20;2.70;;;;;;;4.18;100.00;100010.28;5116726;28;20179;-75
2022/01/31 10:16:27;;;;;;;4.80;3.30;;;;;;;4.14;100.00;100025.94;5114897;28;20216;-75
2022/01/31 10:19:01;;;;;;;6.93;3.20;;;;;;;4.14;100.00;100025.94;5117098;28;20216;-75
2022/01/31 10:21:27;;;;;;;4.27;3.50;;;;;;;4.18;100.00;100029.28;5116218;28;20277;-74
2022/01/31 10:23:54;;;;;;;3.47;2.90;;;;;;;4.16;99.88;100037.97;5115197;28;20236;-75
2022/01/31 10:26:30;;;;;;;6.73;2.57;;;;;;;4.20;100.00;100044.75;5116150;28;20586;-74
2022/01/31 10:29:13;;;;;;;2.93;2.73;;;;;;;4.22;99.75;100056.81;5116405;28;20250;-75
2022/01/31 10:32:25;;;;;;;4.13;2.30;;;;;;;4.19;99.69;100063.78;5116535;28;20176;-75
2022/01/31 10:34:55;;;;;;;5.60;2.50;;;;;;;4.18;99.69;100064.69;5078619;28;20201;-75
2022/01/31 10:37:24;;;;;;;2.43;1.97;;;;;;;4.18;98.29;100041.38;5116032;28;20208;-74
2022/01/31 10:54:28;;;;;;;2.97;2.20;;;;;;;4.24;100.00;100087.84;5115813;28;20188;-74
2022/01/31 10:57:01;;;;;;;2.70;2.50;;;;;;;4.26;99.86;100086.91;5115474;28;20594;-73
2022/01/31 10:59:40;;;;;;;2.27;2.17;;;;;;;4.29;99.98;100098.97;5097774;28;20213;-74
2022/01/31 11:02:15;;;;;;;8.73;2.30;;;;;;;4.31;100.00;100099.75;5115670;28;20262;-74
2022/01/31 11:04:43;;;;;;;3.83;2.43;;;;;;;4.28;99.82;100097.22;5115652;28;20573;-74
2022/01/31 11:07:15;;;;;;;3.03;1.67;;;;;;;4.26;99.50;100091.25;5115214;28;20197;-74
2022/01/31 11:09:43;;;;;;;3.23;1.43;;;;;;;4.32;99.53;100099.72;5115815;28;20236;-74
2022/01/31 11:12:10;;;;;;;8.53;2.67;;;;;;;4.28;100.00;100105.00;5097648;28;20549;-74
2022/01/31 11:14:41;;;;;;;2.10;1.97;;;;;;;4.34;100.00;100103.13;5115410;28;20195;-74
2022/01/31 11:17:13;;;;;;;2.20;2.20;;;;;;;4.33;100.00;100114.38;5115553;28;20199;-74
2022/01/31 11:19:43;;;;;;;3.60;2.50;;;;;;;4.34;99.70;100128.19;5096648;28;20594;-74
2022/01/31 11:22:12;;;;;;;5.60;2.30;;;;;;;4.34;100.00;100115.22;5114982;28;20191;-75
2022/01/31 11:25:03;;;;;;;3.27;2.73;;;;;;;4.36;100.00;100134.19;5100298;28;20199;-74
2022/01/31 11:27:29;;;;;;;3.43;2.43;;;;;;;4.39;100.00;100123.75;5115116;28;20212;-74
2022/01/31 11:29:57;;;;;;;2.37;2.13;;;;;;;4.40;100.00;100128.03;5115133;28;20183;-74
2022/01/31 11:32:26;;;;;;;4.17;2.70;;;;;;;4.39;100.00;100137.53;5114777;28;20281;-74
2022/01/31 11:34:55;;;;;;;10.20;2.40;;;;;;;4.40;100.00;100141.00;5096731;28;20596;-74
2022/01/31 11:37:22;;;;;;;2.80;2.67;;;;;;;4.40;100.00;100149.59;5096265;28;20201;-74
2022/01/31 11:39:55;;;;;;;5.00;1.63;;;;;;;4.42;100.00;100155.59;5114893;28;20640;-74
2022/01/31 11:42:22;;;;;;;5.40;2.57;;;;;;;4.42;100.00;100157.34;5115163;28;20171;-74
2022/01/31 11:44:58;;;;;;;2.53;1.97;;;;;;;4.41;100.00;100159.09;5114856;28;20172;-74
2022/01/31 11:47:28;;;;;;;2.03;1.93;;;;;;;4.45;100.00;100162.47;5114680;28;20174;-74
2022/01/31 11:50:00;;;;;;;3.63;2.13;;;;;;;4.42;100.00;100173.75;5114742;28;20175;-75
2022/01/31 11:52:32;;;;;;;2.70;2.50;;;;;;;4.47;100.00;100173.63;5114715;28;20191;-75
2022/01/31 11:55:03;;;;;;;4.70;2.73;;;;;;;4.47;100.00;100184.00;5114348;28;20184;-75
2022/01/31 11:57:34;;;;;;;6.30;2.20;;;;;;;4.46;100.00;100173.69;5114370;28;20290;-74
2022/01/31 12:00:08;;;;;;;7.37;1.70;;;;;;;4.48;100.00;100175.34;5114599;28;20172;-74
2022/01/31 12:02:52;;;;;;;2.23;1.77;;;;;;;4.48;100.00;100183.13;5114749;28;20166;-74
2022/01/31 12:05:23;;;;;;;7.37;2.87;;;;;;;4.52;100.00;100192.53;5096405;28;20177;-74